sensor_id;sensor_type;location;lat;lon;timestamp;P1;durP1;ratioP1;P2;durP2;ratioP2
10144;SDS011;5113;41.822;23.564;2024-01-11T00:02:07;140.90;;;48.97;;
10144;SDS011;5113;41.822;23.564;2024-01-11T00:05:15;86.80;;;32.90;;
10144;SDS011;5113;41.822;23.564;2024-01-11T00:08:22;70.00;;;29.40;;
10144;SDS011;5113;41.822;23.564;2024-01-11T00:11:29;56.10;;;27.50;;
10144;SDS011;5113;41.822;23.564;2024-01-11T00:14:35;38.63;;;16.10;;
10144;SDS011;5113;41.822;23.564;2024-01-11T00:17:41;39.33;;;20.63;;
10144;SDS011;5113;41.822;23.564;2024-01-11T00:20:50;21.90;;;12.13;;
10144;SDS011;5113;41.822;23.564;2024-01-11T00:23:56;17.80;;;9.57;;
10144;SDS011;5113;41.822;23.564;2024-01-11T00:27:03;16.90;;;10.40;;
10144;SDS011;5113;41.822;23.564;2024-01-11T00:30:10;26.63;;;15.30;;
10144;SDS011;5113;41.822;23.564;2024-01-11T00:33:16;42.47;;;19.93;;
10144;SDS011;5113;41.822;23.564;2024-01-11T00:36:25;33.50;;;16.53;;
10144;SDS011;5113;41.822;23.564;2024-01-11T00:39:32;37.27;;;15.90;;
10144;SDS011;5113;41.822;23.564;2024-01-11T00:42:39;28.67;;;13.43;;
10144;SDS011;5113;41.822;23.564;2024-01-11T00:45:45;42.70;;;18.17;;
10144;SDS011;5113;41.822;23.564;2024-01-11T00:48:52;55.00;;;20.40;;
10144;SDS011;5113;41.822;23.564;2024-01-11T00:52:02;52.43;;;22.60;;
10144;SDS011;5113;41.822;23.564;2024-01-11T00:55:09;29.63;;;13.23;;
10144;SDS011;5113;41.822;23.564;2024-01-11T00:58:15;45.07;;;18.50;;
10144;SDS011;5113;41.822;23.564;2024-01-11T01:01:22;40.90;;;19.00;;
10144;SDS011;5113;41.822;23.564;2024-01-11T01:04:28;44.47;;;19.33;;
10144;SDS011;5113;41.822;23.564;2024-01-11T01:07:37;31.10;;;14.90;;
10144;SDS011;5113;41.822;23.564;2024-01-11T01:10:44;26.93;;;12.83;;
10144;SDS011;5113;41.822;23.564;2024-01-11T01:13:50;28.83;;;12.50;;
10144;SDS011;5113;41.822;23.564;2024-01-11T01:16:57;30.20;;;13.60;;
10144;SDS011;5113;41.822;23.564;2024-01-11T01:20:04;19.10;;;10.30;;
10144;SDS011;5113;41.822;23.564;2024-01-11T01:23:13;16.73;;;9.80;;
10144;SDS011;5113;41.822;23.564;2024-01-11T01:26:20;15.10;;;9.27;;
10144;SDS011;5113;41.822;23.564;2024-01-11T01:29:26;15.93;;;9.00;;
10144;SDS011;5113;41.822;23.564;2024-01-11T01:32:33;15.47;;;10.87;;
10144;SDS011;5113;41.822;23.564;2024-01-11T01:35:40;20.83;;;11.23;;
10144;SDS011;5113;41.822;23.564;2024-01-11T01:38:48;22.97;;;12.17;;
10144;SDS011;5113;41.822;23.564;2024-01-11T01:41:55;15.63;;;10.40;;
10144;SDS011;5113;41.822;23.564;2024-01-11T01:45:02;26.17;;;13.43;;
10144;SDS011;5113;41.822;23.564;2024-01-11T01:48:09;32.43;;;15.93;;
10144;SDS011;5113;41.822;23.564;2024-01-11T01:51:16;33.03;;;15.87;;
10144;SDS011;5113;41.822;23.564;2024-01-11T01:54:24;22.63;;;13.33;;
10144;SDS011;5113;41.822;23.564;2024-01-11T01:57:33;34.80;;;15.77;;
10144;SDS011;5113;41.822;23.564;2024-01-11T02:00:41;32.50;;;16.47;;
10144;SDS011;5113;41.822;23.564;2024-01-11T02:03:49;27.87;;;14.23;;
10144;SDS011;5113;41.822;23.564;2024-01-11T02:06:57;24.80;;;12.63;;
10144;SDS011;5113;41.822;23.564;2024-01-11T02:10:06;21.80;;;11.80;;
10144;SDS011;5113;41.822;23.564;2024-01-11T02:13:13;22.77;;;11.60;;
10144;SDS011;5113;41.822;23.564;2024-01-11T02:16:20;19.23;;;11.03;;
10144;SDS011;5113;41.822;23.564;2024-01-11T02:19:26;19.77;;;10.80;;
10144;SDS011;5113;41.822;23.564;2024-01-11T02:22:34;15.90;;;8.73;;
10144;SDS011;5113;41.822;23.564;2024-01-11T02:25:45;17.47;;;8.90;;
10144;SDS011;5113;41.822;23.564;2024-01-11T02:28:51;17.37;;;9.83;;
10144;SDS011;5113;41.822;23.564;2024-01-11T02:31:57;12.10;;;8.50;;
10144;SDS011;5113;41.822;23.564;2024-01-11T02:35:06;18.43;;;9.70;;
10144;SDS011;5113;41.822;23.564;2024-01-11T02:38:13;15.73;;;7.70;;
10144;SDS011;5113;41.822;23.564;2024-01-11T02:41:22;9.97;;;6.63;;
10144;SDS011;5113;41.822;23.564;2024-01-11T02:44:29;19.13;;;8.77;;
10144;SDS011;5113;41.822;23.564;2024-01-11T02:47:36;18.07;;;9.00;;
10144;SDS011;5113;41.822;23.564;2024-01-11T02:50:43;20.07;;;9.17;;
10144;SDS011;5113;41.822;23.564;2024-01-11T02:53:49;22.07;;;10.23;;
10144;SDS011;5113;41.822;23.564;2024-01-11T02:56:57;16.97;;;9.93;;
10144;SDS011;5113;41.822;23.564;2024-01-11T03:00:04;18.13;;;9.53;;
10144;SDS011;5113;41.822;23.564;2024-01-11T03:03:12;19.93;;;9.43;;
10144;SDS011;5113;41.822;23.564;2024-01-11T03:06:19;25.30;;;12.07;;
10144;SDS011;5113;41.822;23.564;2024-01-11T03:09:26;36.67;;;17.93;;
10144;SDS011;5113;41.822;23.564;2024-01-11T03:12:35;36.80;;;17.93;;
10144;SDS011;5113;41.822;23.564;2024-01-11T03:15:41;35.53;;;14.53;;
10144;SDS011;5113;41.822;23.564;2024-01-11T03:18:48;15.17;;;9.50;;
10144;SDS011;5113;41.822;23.564;2024-01-11T03:21:54;18.53;;;9.63;;
10144;SDS011;5113;41.822;23.564;2024-01-11T03:25:02;31.43;;;16.47;;
10144;SDS011;5113;41.822;23.564;2024-01-11T03:28:10;52.03;;;23.47;;
10144;SDS011;5113;41.822;23.564;2024-01-11T03:31:18;49.17;;;25.20;;
10144;SDS011;5113;41.822;23.564;2024-01-11T03:34:24;51.13;;;24.57;;
10144;SDS011;5113;41.822;23.564;2024-01-11T03:37:32;20.07;;;11.27;;
10144;SDS011;5113;41.822;23.564;2024-01-11T03:40:39;34.83;;;18.33;;
10144;SDS011;5113;41.822;23.564;2024-01-11T03:43:47;51.87;;;24.13;;
10144;SDS011;5113;41.822;23.564;2024-01-11T03:46:53;33.60;;;16.23;;
10144;SDS011;5113;41.822;23.564;2024-01-11T03:50:01;36.03;;;17.50;;
10144;SDS011;5113;41.822;23.564;2024-01-11T03:53:07;43.50;;;21.97;;
10144;SDS011;5113;41.822;23.564;2024-01-11T03:56:14;30.30;;;14.73;;
10144;SDS011;5113;41.822;23.564;2024-01-11T03:59:22;14.17;;;8.93;;
10144;SDS011;5113;41.822;23.564;2024-01-11T04:02:30;17.63;;;9.20;;
10144;SDS011;5113;41.822;23.564;2024-01-11T04:05:36;25.00;;;10.90;;
10144;SDS011;5113;41.822;23.564;2024-01-11T04:08:43;22.00;;;12.80;;
10144;SDS011;5113;41.822;23.564;2024-01-11T04:11:50;20.10;;;12.20;;
10144;SDS011;5113;41.822;23.564;2024-01-11T04:14:58;24.53;;;11.37;;
10144;SDS011;5113;41.822;23.564;2024-01-11T04:18:05;20.63;;;12.60;;
10144;SDS011;5113;41.822;23.564;2024-01-11T04:21:19;18.03;;;11.27;;
10144;SDS011;5113;41.822;23.564;2024-01-11T04:24:27;23.07;;;10.90;;
10144;SDS011;5113;41.822;23.564;2024-01-11T04:27:34;25.10;;;12.30;;
10144;SDS011;5113;41.822;23.564;2024-01-11T04:30:42;33.03;;;14.40;;
10144;SDS011;5113;41.822;23.564;2024-01-11T04:33:49;16.47;;;12.23;;
10144;SDS011;5113;41.822;23.564;2024-01-11T04:36:55;27.67;;;13.97;;
10144;SDS011;5113;41.822;23.564;2024-01-11T04:40:02;37.93;;;17.47;;
10144;SDS011;5113;41.822;23.564;2024-01-11T04:43:09;154.67;;;49.57;;
10144;SDS011;5113;41.822;23.564;2024-01-11T04:46:18;97.20;;;36.93;;
10144;SDS011;5113;41.822;23.564;2024-01-11T04:49:25;56.83;;;26.60;;
10144;SDS011;5113;41.822;23.564;2024-01-11T04:52:33;92.87;;;41.80;;
10144;SDS011;5113;41.822;23.564;2024-01-11T04:55:39;50.53;;;26.97;;
10144;SDS011;5113;41.822;23.564;2024-01-11T04:58:46;39.50;;;23.57;;
10144;SDS011;5113;41.822;23.564;2024-01-11T05:01:55;46.17;;;22.03;;
10144;SDS011;5113;41.822;23.564;2024-01-11T05:05:02;46.30;;;24.47;;
10144;SDS011;5113;41.822;23.564;2024-01-11T05:08:09;45.03;;;22.67;;
10144;SDS011;5113;41.822;23.564;2024-01-11T05:11:16;40.67;;;18.83;;
10144;SDS011;5113;41.822;23.564;2024-01-11T05:14:23;36.83;;;19.30;;
10144;SDS011;5113;41.822;23.564;2024-01-11T05:17:31;24.77;;;13.27;;
10144;SDS011;5113;41.822;23.564;2024-01-11T05:20:39;22.40;;;12.73;;
10144;SDS011;5113;41.822;23.564;2024-01-11T05:23:46;14.87;;;9.97;;
10144;SDS011;5113;41.822;23.564;2024-01-11T05:26:53;17.67;;;10.47;;
10144;SDS011;5113;41.822;23.564;2024-01-11T05:30:00;23.63;;;13.30;;
10144;SDS011;5113;41.822;23.564;2024-01-11T05:33:08;28.60;;;13.83;;
10144;SDS011;5113;41.822;23.564;2024-01-11T05:36:15;49.30;;;25.27;;
10144;SDS011;5113;41.822;23.564;2024-01-11T05:39:22;74.77;;;30.83;;
10144;SDS011;5113;41.822;23.564;2024-01-11T05:42:28;100.90;;;38.30;;
10144;SDS011;5113;41.822;23.564;2024-01-11T05:45:35;111.93;;;44.97;;
10144;SDS011;5113;41.822;23.564;2024-01-11T05:48:53;133.23;;;46.03;;
10144;SDS011;5113;41.822;23.564;2024-01-11T05:51:59;144.27;;;50.33;;
10144;SDS011;5113;41.822;23.564;2024-01-11T05:55:06;130.73;;;47.63;;
10144;SDS011;5113;41.822;23.564;2024-01-11T05:58:12;203.23;;;83.40;;
10144;SDS011;5113;41.822;23.564;2024-01-11T06:01:19;152.17;;;55.13;;
10144;SDS011;5113;41.822;23.564;2024-01-11T06:04:28;156.00;;;58.10;;
10144;SDS011;5113;41.822;23.564;2024-01-11T06:07:35;110.97;;;46.87;;
10144;SDS011;5113;41.822;23.564;2024-01-11T06:10:43;72.93;;;30.20;;
10144;SDS011;5113;41.822;23.564;2024-01-11T06:13:49;54.80;;;24.87;;
10144;SDS011;5113;41.822;23.564;2024-01-11T06:16:56;36.50;;;19.90;;
10144;SDS011;5113;41.822;23.564;2024-01-11T06:20:04;61.53;;;25.43;;
10144;SDS011;5113;41.822;23.564;2024-01-11T06:23:11;36.73;;;18.40;;
10144;SDS011;5113;41.822;23.564;2024-01-11T06:26:18;42.07;;;19.03;;
10144;SDS011;5113;41.822;23.564;2024-01-11T06:29:26;39.27;;;21.77;;
10144;SDS011;5113;41.822;23.564;2024-01-11T06:32:33;53.07;;;27.80;;
10144;SDS011;5113;41.822;23.564;2024-01-11T06:35:42;39.07;;;19.67;;
10144;SDS011;5113;41.822;23.564;2024-01-11T06:38:49;50.13;;;21.20;;
10144;SDS011;5113;41.822;23.564;2024-01-11T06:41:55;28.70;;;15.83;;
10144;SDS011;5113;41.822;23.564;2024-01-11T06:45:02;18.97;;;13.07;;
10144;SDS011;5113;41.822;23.564;2024-01-11T06:48:09;30.20;;;14.23;;
10144;SDS011;5113;41.822;23.564;2024-01-11T06:51:20;34.10;;;16.70;;
10144;SDS011;5113;41.822;23.564;2024-01-11T06:54:27;26.87;;;15.23;;
10144;SDS011;5113;41.822;23.564;2024-01-11T06:57:35;33.37;;;17.90;;
10144;SDS011;5113;41.822;23.564;2024-01-11T07:00:41;33.07;;;18.73;;
10144;SDS011;5113;41.822;23.564;2024-01-11T07:03:48;37.07;;;19.83;;
10144;SDS011;5113;41.822;23.564;2024-01-11T07:06:57;36.67;;;17.77;;
10144;SDS011;5113;41.822;23.564;2024-01-11T07:10:03;52.87;;;23.77;;
10144;SDS011;5113;41.822;23.564;2024-01-11T07:13:11;46.57;;;21.70;;
10144;SDS011;5113;41.822;23.564;2024-01-11T07:16:20;101.17;;;47.60;;
10144;SDS011;5113;41.822;23.564;2024-01-11T07:19:27;59.80;;;27.60;;
10144;SDS011;5113;41.822;23.564;2024-01-11T07:22:35;58.77;;;24.27;;
10144;SDS011;5113;41.822;23.564;2024-01-11T07:25:45;56.53;;;28.43;;
10144;SDS011;5113;41.822;23.564;2024-01-11T07:29:10;45.90;;;21.10;;
10144;SDS011;5113;41.822;23.564;2024-01-11T07:32:17;62.10;;;29.20;;
10144;SDS011;5113;41.822;23.564;2024-01-11T07:35:23;52.37;;;26.53;;
10144;SDS011;5113;41.822;23.564;2024-01-11T07:38:32;49.43;;;26.27;;
10144;SDS011;5113;41.822;23.564;2024-01-11T07:41:38;57.40;;;30.70;;
10144;SDS011;5113;41.822;23.564;2024-01-11T07:44:44;67.73;;;31.47;;
10144;SDS011;5113;41.822;23.564;2024-01-11T07:47:51;43.47;;;22.87;;
10144;SDS011;5113;41.822;23.564;2024-01-11T07:50:58;27.90;;;16.13;;
10144;SDS011;5113;41.822;23.564;2024-01-11T07:54:06;37.17;;;16.57;;
10144;SDS011;5113;41.822;23.564;2024-01-11T07:57:13;35.20;;;16.63;;
10144;SDS011;5113;41.822;23.564;2024-01-11T08:00:21;38.13;;;20.67;;
10144;SDS011;5113;41.822;23.564;2024-01-11T08:03:28;33.10;;;18.80;;
10144;SDS011;5113;41.822;23.564;2024-01-11T08:06:35;32.97;;;16.33;;
10144;SDS011;5113;41.822;23.564;2024-01-11T08:09:44;37.83;;;19.07;;
10144;SDS011;5113;41.822;23.564;2024-01-11T08:12:50;34.00;;;19.20;;
10144;SDS011;5113;41.822;23.564;2024-01-11T08:15:58;28.93;;;18.63;;
10144;SDS011;5113;41.822;23.564;2024-01-11T08:19:04;43.30;;;21.70;;
10144;SDS011;5113;41.822;23.564;2024-01-11T08:22:11;37.77;;;18.93;;
10144;SDS011;5113;41.822;23.564;2024-01-11T08:25:19;32.37;;;17.67;;
10144;SDS011;5113;41.822;23.564;2024-01-11T08:28:25;24.50;;;13.67;;
10144;SDS011;5113;41.822;23.564;2024-01-11T08:31:33;31.50;;;17.17;;
10144;SDS011;5113;41.822;23.564;2024-01-11T08:34:44;34.17;;;18.80;;
10144;SDS011;5113;41.822;23.564;2024-01-11T08:37:51;41.10;;;21.13;;
10144;SDS011;5113;41.822;23.564;2024-01-11T08:40:59;48.20;;;23.00;;
10144;SDS011;5113;41.822;23.564;2024-01-11T08:44:06;48.13;;;25.30;;
10144;SDS011;5113;41.822;23.564;2024-01-11T08:47:13;43.40;;;25.27;;
10144;SDS011;5113;41.822;23.564;2024-01-11T08:50:20;39.33;;;21.57;;
10144;SDS011;5113;41.822;23.564;2024-01-11T08:53:29;44.53;;;25.20;;
10144;SDS011;5113;41.822;23.564;2024-01-11T08:56:37;43.93;;;25.17;;
10144;SDS011;5113;41.822;23.564;2024-01-11T08:59:46;46.67;;;23.07;;
10144;SDS011;5113;41.822;23.564;2024-01-11T09:02:53;33.93;;;21.20;;
10144;SDS011;5113;41.822;23.564;2024-01-11T09:05:59;36.80;;;22.03;;
10144;SDS011;5113;41.822;23.564;2024-01-11T09:09:06;37.27;;;19.83;;
10144;SDS011;5113;41.822;23.564;2024-01-11T09:12:31;27.10;;;15.83;;
10144;SDS011;5113;41.822;23.564;2024-01-11T09:15:38;48.00;;;26.27;;
10144;SDS011;5113;41.822;23.564;2024-01-11T09:18:44;34.90;;;18.60;;
10144;SDS011;5113;41.822;23.564;2024-01-11T09:21:51;41.33;;;21.87;;
10144;SDS011;5113;41.822;23.564;2024-01-11T09:24:58;40.63;;;22.47;;
10144;SDS011;5113;41.822;23.564;2024-01-11T09:28:05;31.90;;;19.97;;
10144;SDS011;5113;41.822;23.564;2024-01-11T09:31:12;27.00;;;16.20;;
10144;SDS011;5113;41.822;23.564;2024-01-11T09:34:18;30.03;;;17.60;;
10144;SDS011;5113;41.822;23.564;2024-01-11T09:37:25;35.83;;;16.97;;
10144;SDS011;5113;41.822;23.564;2024-01-11T09:40:32;45.57;;;19.73;;
10144;SDS011;5113;41.822;23.564;2024-01-11T09:43:41;32.20;;;17.47;;
10144;SDS011;5113;41.822;23.564;2024-01-11T09:46:48;29.03;;;16.67;;
10144;SDS011;5113;41.822;23.564;2024-01-11T09:49:54;21.97;;;13.07;;
10144;SDS011;5113;41.822;23.564;2024-01-11T09:53:05;26.00;;;14.23;;
10144;SDS011;5113;41.822;23.564;2024-01-11T09:56:13;25.63;;;12.80;;
10144;SDS011;5113;41.822;23.564;2024-01-11T09:59:28;24.67;;;14.67;;
10144;SDS011;5113;41.822;23.564;2024-01-11T10:02:36;25.57;;;15.30;;
10144;SDS011;5113;41.822;23.564;2024-01-11T10:05:43;21.57;;;14.00;;
10144;SDS011;5113;41.822;23.564;2024-01-11T10:08:51;19.13;;;11.53;;
10144;SDS011;5113;41.822;23.564;2024-01-11T10:11:57;50.77;;;30.50;;
10144;SDS011;5113;41.822;23.564;2024-01-11T10:15:07;20.03;;;13.60;;
10144;SDS011;5113;41.822;23.564;2024-01-11T10:18:15;16.80;;;10.00;;
10144;SDS011;5113;41.822;23.564;2024-01-11T10:21:22;27.93;;;13.50;;
10144;SDS011;5113;41.822;23.564;2024-01-11T10:24:29;18.27;;;11.97;;
10144;SDS011;5113;41.822;23.564;2024-01-11T10:27:36;12.07;;;8.60;;
10144;SDS011;5113;41.822;23.564;2024-01-11T10:30:44;25.17;;;14.43;;
10144;SDS011;5113;41.822;23.564;2024-01-11T10:33:53;22.80;;;13.10;;
10144;SDS011;5113;41.822;23.564;2024-01-11T10:37:00;22.63;;;11.53;;
10144;SDS011;5113;41.822;23.564;2024-01-11T10:40:07;19.03;;;10.93;;
10144;SDS011;5113;41.822;23.564;2024-01-11T10:43:18;23.13;;;11.80;;
10144;SDS011;5113;41.822;23.564;2024-01-11T10:46:28;22.03;;;12.87;;
10144;SDS011;5113;41.822;23.564;2024-01-11T10:49:38;24.90;;;13.60;;
10144;SDS011;5113;41.822;23.564;2024-01-11T10:52:58;29.87;;;14.93;;
10144;SDS011;5113;41.822;23.564;2024-01-11T10:56:09;25.27;;;14.33;;
10144;SDS011;5113;41.822;23.564;2024-01-11T10:59:17;23.00;;;12.70;;
10144;SDS011;5113;41.822;23.564;2024-01-11T11:02:31;25.67;;;14.20;;
10144;SDS011;5113;41.822;23.564;2024-01-11T11:05:44;25.07;;;14.63;;
10144;SDS011;5113;41.822;23.564;2024-01-11T11:08:54;25.07;;;15.63;;
10144;SDS011;5113;41.822;23.564;2024-01-11T11:12:03;36.97;;;15.40;;
10144;SDS011;5113;41.822;23.564;2024-01-11T11:15:12;37.67;;;21.27;;
10144;SDS011;5113;41.822;23.564;2024-01-11T11:18:20;37.37;;;20.07;;
10144;SDS011;5113;41.822;23.564;2024-01-11T11:21:28;28.13;;;17.60;;
10144;SDS011;5113;41.822;23.564;2024-01-11T11:24:35;31.67;;;17.03;;
10144;SDS011;5113;41.822;23.564;2024-01-11T11:27:42;36.83;;;21.33;;
10144;SDS011;5113;41.822;23.564;2024-01-11T11:30:49;24.57;;;12.60;;
10144;SDS011;5113;41.822;23.564;2024-01-11T11:33:57;31.83;;;17.10;;
10144;SDS011;5113;41.822;23.564;2024-01-11T11:37:08;20.10;;;11.53;;
10144;SDS011;5113;41.822;23.564;2024-01-11T11:40:15;18.33;;;10.37;;
10144;SDS011;5113;41.822;23.564;2024-01-11T11:43:22;11.10;;;6.83;;
10144;SDS011;5113;41.822;23.564;2024-01-11T11:46:29;10.97;;;8.00;;
10144;SDS011;5113;41.822;23.564;2024-01-11T11:53:09;7.37;;;4.73;;
10144;SDS011;5113;41.822;23.564;2024-01-11T11:56:18;8.47;;;6.63;;
10144;SDS011;5113;41.822;23.564;2024-01-11T11:59:25;11.50;;;7.43;;
10144;SDS011;5113;41.822;23.564;2024-01-11T12:02:32;12.10;;;6.90;;
10144;SDS011;5113;41.822;23.564;2024-01-11T12:05:42;15.53;;;7.80;;
10144;SDS011;5113;41.822;23.564;2024-01-11T12:08:49;7.57;;;4.90;;
10144;SDS011;5113;41.822;23.564;2024-01-11T12:12:01;7.63;;;6.37;;
10144;SDS011;5113;41.822;23.564;2024-01-11T12:15:18;11.40;;;6.30;;
10144;SDS011;5113;41.822;23.564;2024-01-11T12:18:25;10.53;;;5.87;;
10144;SDS011;5113;41.822;23.564;2024-01-11T12:21:34;12.63;;;7.93;;
10144;SDS011;5113;41.822;23.564;2024-01-11T12:24:41;10.80;;;6.90;;
10144;SDS011;5113;41.822;23.564;2024-01-11T12:27:49;6.00;;;3.83;;
10144;SDS011;5113;41.822;23.564;2024-01-11T12:30:55;7.20;;;5.40;;
10144;SDS011;5113;41.822;23.564;2024-01-11T12:34:02;11.10;;;7.90;;
10144;SDS011;5113;41.822;23.564;2024-01-11T12:37:10;5.50;;;4.93;;
10144;SDS011;5113;41.822;23.564;2024-01-11T12:40:16;8.87;;;6.17;;
10144;SDS011;5113;41.822;23.564;2024-01-11T12:43:23;16.87;;;9.63;;
10144;SDS011;5113;41.822;23.564;2024-01-11T12:46:29;27.63;;;12.53;;
10144;SDS011;5113;41.822;23.564;2024-01-11T12:49:36;15.07;;;7.97;;
10144;SDS011;5113;41.822;23.564;2024-01-11T12:52:44;9.97;;;6.03;;
10144;SDS011;5113;41.822;23.564;2024-01-11T12:56:01;8.10;;;5.97;;
10144;SDS011;5113;41.822;23.564;2024-01-11T12:59:13;25.47;;;12.00;;
10144;SDS011;5113;41.822;23.564;2024-01-11T13:02:21;31.70;;;11.23;;
10144;SDS011;5113;41.822;23.564;2024-01-11T13:05:28;14.27;;;7.80;;
10144;SDS011;5113;41.822;23.564;2024-01-11T13:08:36;13.00;;;6.87;;
10144;SDS011;5113;41.822;23.564;2024-01-11T13:11:44;8.53;;;6.73;;
10144;SDS011;5113;41.822;23.564;2024-01-11T13:14:51;6.20;;;4.07;;
10144;SDS011;5113;41.822;23.564;2024-01-11T13:17:58;13.50;;;9.00;;
10144;SDS011;5113;41.822;23.564;2024-01-11T13:21:05;12.17;;;6.90;;
10144;SDS011;5113;41.822;23.564;2024-01-11T13:24:14;9.40;;;6.43;;
10144;SDS011;5113;41.822;23.564;2024-01-11T13:27:21;17.50;;;10.23;;
10144;SDS011;5113;41.822;23.564;2024-01-11T13:30:27;13.20;;;8.23;;
10144;SDS011;5113;41.822;23.564;2024-01-11T13:33:34;16.83;;;8.03;;
10144;SDS011;5113;41.822;23.564;2024-01-11T13:36:41;15.73;;;8.27;;
10144;SDS011;5113;41.822;23.564;2024-01-11T13:39:49;17.13;;;9.67;;
10144;SDS011;5113;41.822;23.564;2024-01-11T13:42:56;24.33;;;13.83;;
10144;SDS011;5113;41.822;23.564;2024-01-11T13:46:03;33.97;;;15.10;;
10144;SDS011;5113;41.822;23.564;2024-01-11T13:49:10;27.50;;;13.00;;
10144;SDS011;5113;41.822;23.564;2024-01-11T13:52:17;21.67;;;11.57;;
10144;SDS011;5113;41.822;23.564;2024-01-11T13:55:26;18.80;;;10.67;;
10144;SDS011;5113;41.822;23.564;2024-01-11T13:58:34;31.00;;;16.20;;
10144;SDS011;5113;41.822;23.564;2024-01-11T14:01:43;79.80;;;28.07;;
10144;SDS011;5113;41.822;23.564;2024-01-11T14:04:50;68.87;;;31.17;;
10144;SDS011;5113;41.822;23.564;2024-01-11T14:07:57;39.97;;;19.57;;
10144;SDS011;5113;41.822;23.564;2024-01-11T14:11:05;57.00;;;28.67;;
10144;SDS011;5113;41.822;23.564;2024-01-11T14:14:12;59.10;;;32.90;;
10144;SDS011;5113;41.822;23.564;2024-01-11T14:17:19;52.73;;;29.97;;
10144;SDS011;5113;41.822;23.564;2024-01-11T14:20:26;57.80;;;31.57;;
10144;SDS011;5113;41.822;23.564;2024-01-11T14:23:33;110.67;;;45.40;;
10144;SDS011;5113;41.822;23.564;2024-01-11T14:26:42;82.03;;;41.23;;
10144;SDS011;5113;41.822;23.564;2024-01-11T14:29:49;59.97;;;36.67;;
10144;SDS011;5113;41.822;23.564;2024-01-11T14:32:55;61.90;;;34.80;;
10144;SDS011;5113;41.822;23.564;2024-01-11T14:36:02;41.83;;;25.13;;
10144;SDS011;5113;41.822;23.564;2024-01-11T14:39:10;36.43;;;18.43;;
10144;SDS011;5113;41.822;23.564;2024-01-11T14:42:18;35.53;;;18.00;;
10144;SDS011;5113;41.822;23.564;2024-01-11T14:45:25;28.37;;;13.83;;
10144;SDS011;5113;41.822;23.564;2024-01-11T14:48:31;40.27;;;20.27;;
10144;SDS011;5113;41.822;23.564;2024-01-11T14:51:39;38.07;;;19.40;;
10144;SDS011;5113;41.822;23.564;2024-01-11T14:54:45;32.33;;;19.70;;
10144;SDS011;5113;41.822;23.564;2024-01-11T14:57:54;58.70;;;28.03;;
10144;SDS011;5113;41.822;23.564;2024-01-11T15:01:03;49.70;;;23.97;;
10144;SDS011;5113;41.822;23.564;2024-01-11T15:04:10;38.27;;;20.43;;
10144;SDS011;5113;41.822;23.564;2024-01-11T15:07:16;45.30;;;21.33;;
10144;SDS011;5113;41.822;23.564;2024-01-11T15:10:23;63.70;;;27.03;;
10144;SDS011;5113;41.822;23.564;2024-01-11T15:13:32;70.80;;;28.27;;
10144;SDS011;5113;41.822;23.564;2024-01-11T15:16:40;61.67;;;27.77;;
10144;SDS011;5113;41.822;23.564;2024-01-11T15:19:49;89.83;;;35.50;;
10144;SDS011;5113;41.822;23.564;2024-01-11T15:22:55;79.93;;;36.30;;
10144;SDS011;5113;41.822;23.564;2024-01-11T15:26:05;85.27;;;37.67;;
10144;SDS011;5113;41.822;23.564;2024-01-11T15:29:13;87.17;;;37.23;;
10144;SDS011;5113;41.822;23.564;2024-01-11T15:32:20;55.43;;;30.27;;
10144;SDS011;5113;41.822;23.564;2024-01-11T15:35:27;73.57;;;38.27;;
10144;SDS011;5113;41.822;23.564;2024-01-11T15:38:33;77.67;;;37.63;;
10144;SDS011;5113;41.822;23.564;2024-01-11T15:41:40;105.63;;;48.67;;
10144;SDS011;5113;41.822;23.564;2024-01-11T15:44:48;57.00;;;29.93;;
10144;SDS011;5113;41.822;23.564;2024-01-11T15:47:55;64.43;;;29.40;;
10144;SDS011;5113;41.822;23.564;2024-01-11T15:51:02;84.73;;;39.43;;
10144;SDS011;5113;41.822;23.564;2024-01-11T15:54:08;70.90;;;33.57;;
10144;SDS011;5113;41.822;23.564;2024-01-11T15:57:15;84.97;;;39.43;;
10144;SDS011;5113;41.822;23.564;2024-01-11T16:00:24;66.83;;;33.63;;
10144;SDS011;5113;41.822;23.564;2024-01-11T16:03:31;85.60;;;41.40;;
10144;SDS011;5113;41.822;23.564;2024-01-11T16:06:38;70.73;;;34.97;;
10144;SDS011;5113;41.822;23.564;2024-01-11T16:09:44;60.80;;;30.77;;
10144;SDS011;5113;41.822;23.564;2024-01-11T16:12:52;49.37;;;25.77;;
10144;SDS011;5113;41.822;23.564;2024-01-11T16:16:00;60.30;;;28.97;;
10144;SDS011;5113;41.822;23.564;2024-01-11T16:19:07;82.23;;;42.20;;
10144;SDS011;5113;41.822;23.564;2024-01-11T16:22:14;98.80;;;49.23;;
10144;SDS011;5113;41.822;23.564;2024-01-11T16:25:24;108.13;;;50.33;;
10144;SDS011;5113;41.822;23.564;2024-01-11T16:28:31;60.63;;;31.53;;
10144;SDS011;5113;41.822;23.564;2024-01-11T16:31:40;40.90;;;21.30;;
10144;SDS011;5113;41.822;23.564;2024-01-11T16:34:46;41.10;;;20.60;;
10144;SDS011;5113;41.822;23.564;2024-01-11T16:37:54;31.47;;;18.20;;
10144;SDS011;5113;41.822;23.564;2024-01-11T16:41:00;24.73;;;15.07;;
10144;SDS011;5113;41.822;23.564;2024-01-11T16:44:08;33.57;;;19.27;;
10144;SDS011;5113;41.822;23.564;2024-01-11T16:47:16;54.67;;;29.17;;
10144;SDS011;5113;41.822;23.564;2024-01-11T16:50:22;71.37;;;33.57;;
10144;SDS011;5113;41.822;23.564;2024-01-11T16:53:29;68.73;;;35.67;;
10144;SDS011;5113;41.822;23.564;2024-01-11T16:56:37;67.73;;;34.03;;
10144;SDS011;5113;41.822;23.564;2024-01-11T16:59:43;33.17;;;17.70;;
10144;SDS011;5113;41.822;23.564;2024-01-11T17:02:51;34.50;;;17.80;;
10144;SDS011;5113;41.822;23.564;2024-01-11T17:05:58;29.67;;;16.33;;
10144;SDS011;5113;41.822;23.564;2024-01-11T17:09:04;25.53;;;16.00;;
10144;SDS011;5113;41.822;23.564;2024-01-11T17:12:11;32.97;;;17.23;;
10144;SDS011;5113;41.822;23.564;2024-01-11T17:15:18;33.70;;;17.50;;
10144;SDS011;5113;41.822;23.564;2024-01-11T17:18:26;27.27;;;14.83;;
10144;SDS011;5113;41.822;23.564;2024-01-11T17:21:32;33.00;;;16.30;;
10144;SDS011;5113;41.822;23.564;2024-01-11T17:24:39;17.80;;;11.63;;
10144;SDS011;5113;41.822;23.564;2024-01-11T17:27:47;19.30;;;13.47;;
10144;SDS011;5113;41.822;23.564;2024-01-11T17:30:54;23.20;;;15.93;;
10144;SDS011;5113;41.822;23.564;2024-01-11T17:34:03;20.27;;;12.33;;
10144;SDS011;5113;41.822;23.564;2024-01-11T17:37:09;26.47;;;16.10;;
10144;SDS011;5113;41.822;23.564;2024-01-11T17:40:16;39.77;;;19.27;;
10144;SDS011;5113;41.822;23.564;2024-01-11T17:43:22;24.73;;;12.33;;
10144;SDS011;5113;41.822;23.564;2024-01-11T17:46:29;44.20;;;21.43;;
10144;SDS011;5113;41.822;23.564;2024-01-11T17:49:38;63.60;;;27.43;;
10144;SDS011;5113;41.822;23.564;2024-01-11T17:52:46;47.70;;;21.10;;
10144;SDS011;5113;41.822;23.564;2024-01-11T17:55:55;41.67;;;18.80;;
10144;SDS011;5113;41.822;23.564;2024-01-11T17:59:02;58.90;;;29.27;;
10144;SDS011;5113;41.822;23.564;2024-01-11T18:02:10;47.37;;;23.50;;
10144;SDS011;5113;41.822;23.564;2024-01-11T18:05:18;57.57;;;28.07;;
10144;SDS011;5113;41.822;23.564;2024-01-11T18:08:25;72.80;;;26.27;;
10144;SDS011;5113;41.822;23.564;2024-01-11T18:11:31;52.77;;;24.97;;
10144;SDS011;5113;41.822;23.564;2024-01-11T18:14:38;38.67;;;17.80;;
10144;SDS011;5113;41.822;23.564;2024-01-11T18:17:45;26.93;;;14.10;;
10144;SDS011;5113;41.822;23.564;2024-01-11T18:20:53;19.63;;;12.30;;
10144;SDS011;5113;41.822;23.564;2024-01-11T18:24:00;30.10;;;14.00;;